createdAt,value
2017-08-30T00:01:09.552Z,23.00
2017-08-30T00:03:37.125Z,22.90
2017-08-30T00:06:04.637Z,22.90
2017-08-30T00:08:32.168Z,22.90
2017-08-30T00:10:59.697Z,22.80
2017-08-30T00:13:27.236Z,22.80
2017-08-30T00:15:54.757Z,22.80
2017-08-30T00:18:22.272Z,22.80
2017-08-30T00:20:49.831Z,22.80
2017-08-30T00:23:17.331Z,22.80
2017-08-30T00:25:56.642Z,22.80
2017-08-30T00:28:24.139Z,22.80
2017-08-30T00:30:51.664Z,22.80
2017-08-30T00:33:19.189Z,22.70
2017-08-30T00:35:46.740Z,22.70
2017-08-30T00:38:14.275Z,22.70
2017-08-30T00:40:41.805Z,22.70
2017-08-30T00:43:09.314Z,22.70
2017-08-30T00:45:36.846Z,22.60
2017-08-30T00:48:04.381Z,22.60
2017-08-30T00:50:31.874Z,22.60
2017-08-30T00:52:59.410Z,22.60
2017-08-30T00:55:26.911Z,22.60
2017-08-30T00:57:54.450Z,22.50
2017-08-30T01:00:22.042Z,22.50
2017-08-30T01:02:49.573Z,22.50
2017-08-30T01:05:17.103Z,22.50
2017-08-30T01:07:44.636Z,22.50
2017-08-30T01:10:12.151Z,22.50
2017-08-30T01:12:39.669Z,22.50
2017-08-30T01:15:07.211Z,22.40
2017-08-30T01:17:34.878Z,22.40
2017-08-30T01:20:02.768Z,22.40
2017-08-30T01:22:30.286Z,22.30
2017-08-30T01:24:57.793Z,22.30
2017-08-30T01:27:25.402Z,22.30
2017-08-30T01:29:52.904Z,22.20
2017-08-30T01:32:20.425Z,22.20
2017-08-30T01:34:47.959Z,22.10
2017-08-30T01:37:15.523Z,22.10
2017-08-30T01:39:43.036Z,22.10
2017-08-30T01:42:10.571Z,22.10
2017-08-30T01:44:38.106Z,22.00
2017-08-30T01:47:05.618Z,22.00
2017-08-30T01:49:33.143Z,22.00
2017-08-30T01:52:00.678Z,21.90
2017-08-30T01:54:28.219Z,21.90
2017-08-30T01:56:55.730Z,21.90
2017-08-30T01:59:23.272Z,21.90
2017-08-30T02:01:50.848Z,21.90
2017-08-30T02:04:18.372Z,21.80
2017-08-30T02:06:45.882Z,21.80
2017-08-30T02:09:13.413Z,21.80
2017-08-30T02:11:41.789Z,21.80
2017-08-30T02:14:09.333Z,21.70
2017-08-30T02:16:36.848Z,21.70
2017-08-30T02:19:04.398Z,21.70
2017-08-30T02:21:31.921Z,21.60
2017-08-30T02:23:59.463Z,21.60
2017-08-30T02:26:27.020Z,21.60
2017-08-30T02:28:54.550Z,21.60
2017-08-30T02:31:22.030Z,21.60
2017-08-30T02:33:49.551Z,21.60
2017-08-30T02:36:17.076Z,21.60
2017-08-30T02:38:44.577Z,21.60
2017-08-30T02:41:12.150Z,21.60
2017-08-30T02:43:39.661Z,21.50
2017-08-30T02:46:07.931Z,21.50
2017-08-30T02:48:35.474Z,21.50
2017-08-30T02:51:02.979Z,21.50
2017-08-30T02:53:30.516Z,21.50
2017-08-30T02:55:58.011Z,21.40
2017-08-30T02:58:25.541Z,21.40
2017-08-30T03:00:53.045Z,21.30
2017-08-30T03:03:20.586Z,21.30
2017-08-30T03:05:48.162Z,21.30
2017-08-30T03:08:15.654Z,21.20
2017-08-30T03:10:43.180Z,21.20
2017-08-30T03:13:10.760Z,21.20
2017-08-30T03:15:38.255Z,21.20
2017-08-30T03:18:05.746Z,21.20
2017-08-30T03:20:33.585Z,21.10
2017-08-30T03:23:01.075Z,21.10
2017-08-30T03:25:28.572Z,21.20
2017-08-30T03:27:56.119Z,21.10
2017-08-30T03:30:23.616Z,21.10
2017-08-30T03:32:51.116Z,21.10
2017-08-30T03:35:18.774Z,21.00
2017-08-30T03:37:46.281Z,21.00
2017-08-30T03:40:13.788Z,21.00
2017-08-30T03:42:41.314Z,21.00
2017-08-30T03:45:08.847Z,21.00
2017-08-30T03:47:36.334Z,20.90
2017-08-30T03:50:04.361Z,20.90
2017-08-30T03:52:32.162Z,20.80
2017-08-30T03:54:59.672Z,20.70
2017-08-30T03:57:27.203Z,20.80
2017-08-30T03:59:54.721Z,20.80
2017-08-30T04:02:23.499Z,20.80
2017-08-30T04:04:51.018Z,20.80
2017-08-30T04:07:18.533Z,20.80
2017-08-30T04:09:46.809Z,20.70
2017-08-30T04:12:14.344Z,20.60
2017-08-30T04:14:41.880Z,20.60
2017-08-30T04:17:09.413Z,20.60
2017-08-30T04:19:36.896Z,20.60
2017-08-30T04:22:04.582Z,20.60
2017-08-30T04:24:32.080Z,20.60
2017-08-30T04:26:59.575Z,20.60
2017-08-30T04:29:27.106Z,20.60
2017-08-30T04:31:54.590Z,20.60
2017-08-30T04:34:22.121Z,20.60
2017-08-30T04:36:49.666Z,20.60
2017-08-30T04:39:17.162Z,20.50
2017-08-30T04:41:44.690Z,20.50
2017-08-30T04:44:12.975Z,20.50
2017-08-30T04:46:40.505Z,20.50
2017-08-30T04:49:08.045Z,20.50
2017-08-30T04:51:35.586Z,20.50
2017-08-30T04:54:03.106Z,20.50
2017-08-30T04:56:30.683Z,20.50
2017-08-30T04:58:58.224Z,20.50
2017-08-30T05:01:25.723Z,20.50
2017-08-30T05:03:53.269Z,20.50
2017-08-30T05:06:20.840Z,20.50
2017-08-30T05:08:48.379Z,20.50
2017-08-30T05:11:15.960Z,20.50
2017-08-30T05:13:43.460Z,20.50
2017-08-30T05:16:11.001Z,20.50
2017-08-30T05:18:38.525Z,20.50
2017-08-30T05:21:06.025Z,20.50
2017-08-30T05:23:33.572Z,20.60
2017-08-30T05:26:01.144Z,20.60
2017-08-30T05:28:28.661Z,20.60
2017-08-30T05:30:56.196Z,20.50
2017-08-30T05:33:23.743Z,20.60
2017-08-30T05:35:51.240Z,20.60
2017-08-30T05:38:19.078Z,20.60
2017-08-30T05:40:46.588Z,20.60
2017-08-30T05:43:14.074Z,20.70
2017-08-30T05:45:41.911Z,20.70
2017-08-30T05:48:09.422Z,20.80
2017-08-30T05:50:36.932Z,20.80
2017-08-30T05:53:04.456Z,20.80
2017-08-30T05:55:32.010Z,20.80
2017-08-30T05:57:59.568Z,20.80
2017-08-30T06:00:27.078Z,20.90
2017-08-30T06:02:54.608Z,20.90
2017-08-30T06:05:22.190Z,20.90
2017-08-30T06:07:49.889Z,21.00
2017-08-30T06:10:17.397Z,21.00
2017-08-30T06:12:44.946Z,21.10
2017-08-30T06:15:12.632Z,21.10
2017-08-30T06:17:40.155Z,21.20
2017-08-30T06:20:07.680Z,21.20
2017-08-30T06:22:35.674Z,21.30
2017-08-30T06:25:03.442Z,21.30
2017-08-30T06:27:30.946Z,21.50
2017-08-30T06:29:58.476Z,21.50
2017-08-30T06:32:26.081Z,21.60
2017-08-30T06:34:53.626Z,21.70
2017-08-30T06:37:21.128Z,21.80
2017-08-30T06:39:48.651Z,21.80
2017-08-30T06:42:16.150Z,21.80
2017-08-30T06:44:43.687Z,21.80
2017-08-30T06:47:11.179Z,21.90
2017-08-30T06:49:38.768Z,21.90
2017-08-30T06:52:06.257Z,21.90
2017-08-30T06:54:33.764Z,22.00
2017-08-30T06:57:01.284Z,22.00
2017-08-30T06:59:28.830Z,22.00
2017-08-30T07:01:56.335Z,22.10
2017-08-30T07:04:23.865Z,22.10
2017-08-30T07:06:51.388Z,22.10
2017-08-30T07:09:19.022Z,22.10
2017-08-30T07:11:46.595Z,22.20
2017-08-30T07:14:14.124Z,22.20
2017-08-30T07:16:41.620Z,22.20
2017-08-30T07:19:10.072Z,22.30
2017-08-30T07:21:37.609Z,22.30
2017-08-30T07:24:05.132Z,22.40
2017-08-30T07:26:32.651Z,22.40
2017-08-30T07:29:00.201Z,22.40
2017-08-30T07:31:27.715Z,22.50
2017-08-30T07:33:55.228Z,22.60
2017-08-30T07:36:22.959Z,22.60
2017-08-30T07:38:50.500Z,22.70
2017-08-30T07:41:18.052Z,22.70
2017-08-30T07:43:45.598Z,22.70
2017-08-30T07:46:13.155Z,22.80
2017-08-30T07:48:40.748Z,22.80
2017-08-30T07:51:08.278Z,22.90
2017-08-30T07:53:35.849Z,22.90
2017-08-30T07:56:03.346Z,23.00
2017-08-30T07:58:30.855Z,23.00
2017-08-30T08:00:58.376Z,23.10
2017-08-30T08:03:25.908Z,23.10
2017-08-30T08:05:53.459Z,23.10
2017-08-30T08:08:21.041Z,23.10
2017-08-30T08:10:49.362Z,23.20
2017-08-30T08:13:16.880Z,23.20
2017-08-30T08:15:44.446Z,23.20
2017-08-30T08:18:11.942Z,23.30
2017-08-30T08:20:39.455Z,23.40
2017-08-30T08:23:06.999Z,23.40
2017-08-30T08:25:34.545Z,23.40
2017-08-30T08:28:03.201Z,23.50
2017-08-30T08:30:30.733Z,23.50
2017-08-30T08:32:58.318Z,23.60
2017-08-30T08:35:26.502Z,23.70
2017-08-30T08:37:54.113Z,23.70
2017-08-30T08:40:21.945Z,23.80
2017-08-30T08:42:49.452Z,23.80
2017-08-30T08:45:16.969Z,23.90
2017-08-30T08:47:44.522Z,24.00
2017-08-30T08:50:12.081Z,24.10
2017-08-30T08:52:39.670Z,24.10
2017-08-30T08:55:07.253Z,24.20
2017-08-30T08:57:34.780Z,24.30
2017-08-30T09:00:02.525Z,24.30
2017-08-30T09:02:30.053Z,24.40
2017-08-30T09:04:58.427Z,24.50
2017-08-30T09:07:25.930Z,24.50
2017-08-30T09:09:53.479Z,24.60
2017-08-30T09:12:21.000Z,24.60
2017-08-30T09:14:48.580Z,24.70
2017-08-30T09:17:16.103Z,24.80
2017-08-30T09:19:44.100Z,24.90
2017-08-30T09:22:11.611Z,25.00
2017-08-30T09:24:39.119Z,25.00
2017-08-30T09:27:06.654Z,25.10
2017-08-30T09:29:34.189Z,25.10
2017-08-30T09:32:01.725Z,25.20
2017-08-30T09:34:29.216Z,25.30
2017-08-30T09:36:57.575Z,25.40
2017-08-30T09:39:25.106Z,25.40
2017-08-30T09:41:52.632Z,25.50
2017-08-30T09:44:21.002Z,25.60
2017-08-30T09:46:51.381Z,25.70
2017-08-30T09:49:18.922Z,25.80
2017-08-30T09:51:46.521Z,25.90
2017-08-30T09:54:14.184Z,25.90
2017-08-30T09:56:41.701Z,26.00
2017-08-30T09:59:10.014Z,26.00
2017-08-30T10:01:38.321Z,26.10
2017-08-30T10:06:37.993Z,26.20
2017-08-30T10:09:05.524Z,26.20
2017-08-30T10:11:33.105Z,26.30
2017-08-30T10:14:00.675Z,26.40
2017-08-30T10:16:28.228Z,26.40
2017-08-30T10:18:55.787Z,26.40
2017-08-30T10:21:23.311Z,26.50
2017-08-30T10:23:50.807Z,26.60
2017-08-30T10:26:18.363Z,26.70
2017-08-30T10:28:45.938Z,26.70
2017-08-30T10:31:13.446Z,26.70
2017-08-30T10:33:41.713Z,26.90
2017-08-30T10:36:09.246Z,26.90
2017-08-30T10:38:37.387Z,26.90
2017-08-30T10:41:04.939Z,27.00
2017-08-30T10:43:32.475Z,27.00
2017-08-30T10:46:00.471Z,27.10
2017-08-30T10:48:28.038Z,27.10
2017-08-30T10:50:55.549Z,27.20
2017-08-30T10:53:23.153Z,27.20
2017-08-30T10:55:50.668Z,27.30
2017-08-30T10:58:18.203Z,27.40
2017-08-30T11:00:46.485Z,27.50
2017-08-30T11:03:13.991Z,27.50
2017-08-30T11:05:41.547Z,27.60
2017-08-30T11:08:09.077Z,27.60
2017-08-30T11:10:36.590Z,27.70
2017-08-30T11:13:04.381Z,27.70
2017-08-30T11:15:31.868Z,27.80
2017-08-30T11:17:59.383Z,27.80
2017-08-30T11:20:26.944Z,27.90
2017-08-30T11:22:54.423Z,27.90
2017-08-30T11:25:21.933Z,27.90
2017-08-30T11:27:49.486Z,28.00
2017-08-30T11:30:17.006Z,28.00
2017-08-30T11:32:44.532Z,28.10
2017-08-30T11:35:12.062Z,28.10
2017-08-30T11:37:40.231Z,28.20
2017-08-30T11:40:07.739Z,28.20
2017-08-30T11:42:35.266Z,28.30
2017-08-30T11:45:03.165Z,28.30
2017-08-30T11:47:31.646Z,28.40
2017-08-30T11:49:59.840Z,28.40
2017-08-30T11:52:27.547Z,28.50
2017-08-30T11:54:57.242Z,28.60
2017-08-30T11:57:24.846Z,28.60
2017-08-30T11:59:52.361Z,28.70
2017-08-30T12:02:19.898Z,28.70
2017-08-30T12:04:49.580Z,28.80
2017-08-30T12:07:19.920Z,28.80
2017-08-30T12:09:47.451Z,28.80
2017-08-30T12:12:15.099Z,28.90
2017-08-30T12:14:43.040Z,28.90
2017-08-30T12:17:11.117Z,29.00
2017-08-30T12:22:14.010Z,29.10
2017-08-30T12:24:41.585Z,29.10
2017-08-30T12:27:10.337Z,29.20
2017-08-30T12:29:38.735Z,29.20
2017-08-30T12:32:06.244Z,29.30
2017-08-30T12:34:35.296Z,29.40
2017-08-30T12:37:08.839Z,29.50
2017-08-30T12:39:39.240Z,29.50
2017-08-30T12:42:06.753Z,29.60
2017-08-30T12:44:34.315Z,29.70
2017-08-30T12:47:01.890Z,29.70
2017-08-30T12:49:29.401Z,29.80
2017-08-30T12:51:56.946Z,29.90
2017-08-30T12:54:24.488Z,29.90
2017-08-30T12:56:52.803Z,29.90
2017-08-30T12:59:20.342Z,29.90
2017-08-30T13:01:47.853Z,30.00
2017-08-30T13:04:15.406Z,30.10
2017-08-30T13:06:42.917Z,30.20
2017-08-30T13:09:10.431Z,30.20
2017-08-30T13:11:37.974Z,30.30
2017-08-30T13:14:05.508Z,30.40
2017-08-30T13:16:33.019Z,30.40
2017-08-30T13:19:00.547Z,30.40
2017-08-30T13:21:28.078Z,30.50
2017-08-30T13:23:55.735Z,30.60
2017-08-30T13:26:23.237Z,30.60
2017-08-30T13:28:50.787Z,30.60
2017-08-30T13:31:18.349Z,30.60
2017-08-30T13:33:45.872Z,30.70
2017-08-30T13:36:13.418Z,30.70
2017-08-30T13:38:40.918Z,30.80
2017-08-30T13:41:08.542Z,30.80
2017-08-30T13:43:36.059Z,30.90
2017-08-30T13:46:03.560Z,31.00
2017-08-30T13:48:31.897Z,31.00
2017-08-30T13:50:59.414Z,31.00
2017-08-30T13:53:26.966Z,31.00
2017-08-30T13:55:54.517Z,31.00
2017-08-30T13:58:22.041Z,31.10
2017-08-30T14:00:49.569Z,31.10
2017-08-30T14:03:17.085Z,31.10
2017-08-30T14:05:44.602Z,31.10
2017-08-30T14:08:12.128Z,31.20
2017-08-30T14:10:39.659Z,31.10
2017-08-30T14:13:07.227Z,31.10
2017-08-30T14:15:34.769Z,31.10
2017-08-30T14:18:02.318Z,31.10
2017-08-30T14:20:29.916Z,31.00
2017-08-30T14:22:57.539Z,31.00
2017-08-30T14:25:25.109Z,31.00
2017-08-30T14:27:52.608Z,31.00
2017-08-30T14:30:21.028Z,30.90
2017-08-30T14:32:48.546Z,30.90
2017-08-30T14:35:16.106Z,30.90
2017-08-30T14:37:43.624Z,30.80
2017-08-30T14:40:11.130Z,30.80
2017-08-30T14:42:38.665Z,30.70
2017-08-30T14:45:06.614Z,30.70
2017-08-30T14:47:36.276Z,30.60
2017-08-30T14:50:04.243Z,30.60
2017-08-30T14:52:31.764Z,30.50
2017-08-30T14:54:59.346Z,30.50
2017-08-30T14:57:26.975Z,30.40
2017-08-30T14:59:55.328Z,30.40
2017-08-30T15:02:22.827Z,30.40
2017-08-30T15:04:51.154Z,30.40
2017-08-30T15:07:18.690Z,30.30
2017-08-30T15:09:46.222Z,30.30
2017-08-30T15:12:13.849Z,30.30
2017-08-30T15:14:41.386Z,30.30
2017-08-30T15:17:08.981Z,30.30
2017-08-30T15:19:36.495Z,30.30
2017-08-30T15:22:04.368Z,30.30
2017-08-30T15:24:31.889Z,30.30
2017-08-30T15:26:59.423Z,30.30
2017-08-30T15:29:27.047Z,30.30
2017-08-30T15:31:54.575Z,30.40
2017-08-30T15:34:22.136Z,30.30
2017-08-30T15:36:49.667Z,30.40
2017-08-30T15:39:17.219Z,30.40
2017-08-30T15:41:44.729Z,30.40
2017-08-30T15:44:12.264Z,30.40
2017-08-30T15:46:39.833Z,30.40
2017-08-30T15:49:07.408Z,30.40
2017-08-30T15:51:34.943Z,30.50
2017-08-30T15:54:02.448Z,30.50
2017-08-30T15:56:30.026Z,30.60
2017-08-30T15:58:57.547Z,30.80
2017-08-30T16:01:25.069Z,30.80
2017-08-30T16:03:52.625Z,30.90
2017-08-30T16:06:20.245Z,31.00
2017-08-30T16:08:47.739Z,31.20
2017-08-30T16:11:15.254Z,31.20
2017-08-30T16:13:42.951Z,31.40
2017-08-30T16:16:11.246Z,31.40
2017-08-30T16:18:38.769Z,31.50
2017-08-30T16:21:06.365Z,31.60
2017-08-30T16:23:33.924Z,31.70
2017-08-30T16:26:01.421Z,31.80
2017-08-30T16:28:29.066Z,31.90
2017-08-30T16:30:56.606Z,31.90
2017-08-30T16:33:24.095Z,31.90
2017-08-30T16:35:51.659Z,31.90
2017-08-30T16:38:21.031Z,31.90
2017-08-30T16:40:48.640Z,31.80
2017-08-30T16:43:16.205Z,31.70
2017-08-30T16:45:44.452Z,31.50
2017-08-30T16:48:11.972Z,31.40
2017-08-30T16:50:39.500Z,31.20
2017-08-30T16:53:07.526Z,31.00
2017-08-30T16:55:35.107Z,30.90
2017-08-30T16:58:02.604Z,30.70
2017-08-30T17:00:30.165Z,30.50
2017-08-30T17:02:57.687Z,30.30
2017-08-30T17:05:25.191Z,30.20
2017-08-30T17:07:52.768Z,30.00
2017-08-30T17:10:20.513Z,29.90
2017-08-30T17:12:48.096Z,29.70
2017-08-30T17:15:15.653Z,29.60
2017-08-30T17:17:43.231Z,29.50
2017-08-30T17:20:11.113Z,29.40
2017-08-30T17:22:38.621Z,29.30
2017-08-30T17:25:06.416Z,29.20
2017-08-30T17:27:33.941Z,29.10
2017-08-30T17:30:01.497Z,29.00
2017-08-30T17:32:29.886Z,29.00
2017-08-30T17:34:58.264Z,28.90
2017-08-30T17:37:25.797Z,28.80
2017-08-30T17:39:53.338Z,28.70
2017-08-30T17:42:20.905Z,28.70
2017-08-30T17:44:48.452Z,28.60
2017-08-30T17:47:16.024Z,28.50
2017-08-30T17:49:43.551Z,28.50
2017-08-30T17:52:12.384Z,28.40
2017-08-30T17:54:39.923Z,28.30
2017-08-30T17:57:07.468Z,28.30
2017-08-30T17:59:34.982Z,28.20
2017-08-30T18:02:02.500Z,28.10
2017-08-30T18:04:30.039Z,28.10
2017-08-30T18:06:57.553Z,28.00
2017-08-30T18:09:25.187Z,28.00
2017-08-30T18:11:52.800Z,28.00
2017-08-30T18:14:20.318Z,27.90
2017-08-30T18:16:47.841Z,27.90
2017-08-30T18:19:15.372Z,27.90
2017-08-30T18:21:42.944Z,27.80
2017-08-30T18:24:11.002Z,27.80
2017-08-30T18:26:38.529Z,27.80
2017-08-30T18:29:06.130Z,27.70
2017-08-30T18:31:33.674Z,27.70
2017-08-30T18:34:01.208Z,27.60
2017-08-30T18:36:28.773Z,27.60
2017-08-30T18:38:56.357Z,27.60
2017-08-30T18:41:23.898Z,27.50
2017-08-30T18:43:51.406Z,27.50
2017-08-30T18:46:18.949Z,27.50
2017-08-30T18:48:46.464Z,27.40
2017-08-30T18:51:13.975Z,27.40
2017-08-30T18:53:41.529Z,27.30
2017-08-30T19:05:49.091Z,27.30
2017-08-30T19:08:16.592Z,27.00
2017-08-30T19:10:44.108Z,27.00
2017-08-30T19:13:11.671Z,26.90
2017-08-30T19:15:40.012Z,26.90
2017-08-30T19:18:07.534Z,26.90
2017-08-30T19:20:35.096Z,26.90
2017-08-30T19:23:02.587Z,26.90
2017-08-30T19:25:30.102Z,26.90
2017-08-30T19:27:57.628Z,26.90
2017-08-30T19:30:25.121Z,26.80
2017-08-30T19:32:52.625Z,26.80
2017-08-30T19:35:20.175Z,26.80
2017-08-30T19:37:47.712Z,26.80
2017-08-30T19:40:15.269Z,26.80
2017-08-30T19:42:42.787Z,26.80
2017-08-30T19:45:10.304Z,26.80
2017-08-30T19:47:38.198Z,26.70
2017-08-30T19:50:06.008Z,26.70
2017-08-30T19:52:33.513Z,26.70
2017-08-30T19:55:01.014Z,26.60
2017-08-30T19:57:28.581Z,26.60
2017-08-30T19:59:56.118Z,26.60
2017-08-30T20:02:23.722Z,26.60
2017-08-30T20:04:51.253Z,26.50
2017-08-30T20:07:18.780Z,26.50
2017-08-30T20:09:46.313Z,26.50
2017-08-30T20:12:13.821Z,26.40
2017-08-30T20:14:41.334Z,26.40
2017-08-30T20:17:08.893Z,26.40
2017-08-30T20:19:36.441Z,26.40
2017-08-30T20:22:04.037Z,26.40
2017-08-30T20:24:31.595Z,26.30
2017-08-30T20:26:59.082Z,26.30
2017-08-30T20:29:26.595Z,26.20
2017-08-30T20:31:54.163Z,26.20
2017-08-30T20:34:21.657Z,26.20
2017-08-30T20:36:49.200Z,26.20
2017-08-30T20:39:16.696Z,26.20
2017-08-30T20:41:44.252Z,26.20
2017-08-30T20:44:11.776Z,26.10
2017-08-30T20:46:39.275Z,26.10
2017-08-30T20:49:06.851Z,26.10
2017-08-30T20:51:34.527Z,26.10
2017-08-30T20:54:02.065Z,26.00
2017-08-30T20:56:29.656Z,26.00
2017-08-30T20:58:57.201Z,26.00
2017-08-30T21:01:24.744Z,26.00
2017-08-30T21:03:52.306Z,25.90
2017-08-30T21:06:19.898Z,25.90
2017-08-30T21:08:47.684Z,25.90
2017-08-30T21:11:15.201Z,25.80
2017-08-30T21:13:42.733Z,25.80
2017-08-30T21:16:10.350Z,25.80
2017-08-30T21:18:37.911Z,25.80
2017-08-30T21:21:05.421Z,25.70
2017-08-30T21:23:32.964Z,25.70
2017-08-30T21:26:00.466Z,25.70
2017-08-30T21:28:28.003Z,25.70
2017-08-30T21:30:55.568Z,25.70
2017-08-30T21:33:23.090Z,25.60
2017-08-30T21:35:50.578Z,25.60
2017-08-30T21:38:18.116Z,25.50
2017-08-30T21:40:45.653Z,25.60
2017-08-30T21:43:13.550Z,25.50
2017-08-30T21:45:41.034Z,25.50
2017-08-30T21:48:08.729Z,25.50
2017-08-30T21:50:36.263Z,25.50
2017-08-30T21:53:03.768Z,25.50
2017-08-30T21:55:31.320Z,25.40
2017-08-30T21:57:58.801Z,25.40
2017-08-30T22:00:26.321Z,25.40
2017-08-30T22:02:53.903Z,25.40
2017-08-30T22:05:21.474Z,25.30
2017-08-30T22:07:49.040Z,25.30
2017-08-30T22:10:16.539Z,25.30
2017-08-30T22:12:44.042Z,25.20
2017-08-30T22:15:11.532Z,25.20
2017-08-30T22:17:39.139Z,25.20
2017-08-30T22:20:06.692Z,25.10
2017-08-30T22:22:34.206Z,25.10
2017-08-30T22:25:01.747Z,25.10
2017-08-30T22:27:29.261Z,25.10
2017-08-30T22:29:56.818Z,25.10
2017-08-30T22:32:24.407Z,25.10
2017-08-30T22:34:51.954Z,25.10
2017-08-30T22:37:19.579Z,25.00
2017-08-30T22:39:47.177Z,25.00
2017-08-30T22:42:14.716Z,25.00
2017-08-30T22:44:42.263Z,25.00
2017-08-30T22:47:09.875Z,25.00
2017-08-30T22:49:37.411Z,24.90
2017-08-30T22:52:05.007Z,24.90
2017-08-30T22:54:32.512Z,24.80
2017-08-30T22:57:00.087Z,24.80
2017-08-30T22:59:27.647Z,24.80
2017-08-30T23:01:55.190Z,24.80
2017-08-30T23:04:22.685Z,24.80
2017-08-30T23:06:50.178Z,24.80
2017-08-30T23:09:17.686Z,24.80
2017-08-30T23:11:45.192Z,24.80
2017-08-30T23:14:12.700Z,24.70
2017-08-30T23:16:40.228Z,24.70
2017-08-30T23:19:07.715Z,24.70
2017-08-30T23:21:35.240Z,24.70
2017-08-30T23:24:02.816Z,24.60
2017-08-30T23:26:30.353Z,24.60
2017-08-30T23:28:57.904Z,24.60
2017-08-30T23:31:25.403Z,24.60
2017-08-30T23:33:52.890Z,24.60
2017-08-30T23:36:20.434Z,24.50
2017-08-30T23:38:47.984Z,24.50
2017-08-30T23:41:15.498Z,24.50
2017-08-30T23:43:42.994Z,24.50
2017-08-30T23:46:10.569Z,24.50
2017-08-30T23:48:38.112Z,24.40
2017-08-30T23:51:05.632Z,24.40
2017-08-30T23:53:33.165Z,24.40
2017-08-30T23:56:00.682Z,24.40
2017-08-30T23:58:28.226Z,24.40
